Time;durP1;ratioP1;P1;durP2;ratioP2;P2;SDS_P1;SDS_P2;PMS_P1;PMS_P2;Temp;Humidity;BMP_temperature;BMP_pressure;BME280_temperature;BME280_humidity;BME280_pressure;Samples;Min_cycle;Max_cycle;Signal;HPM_P1;HPM_P2
2022/03/24 06:30:09;;;;;;;45.05;21.40;;;;;;;;;;4950107;28;20047;-61
2022/03/24 06:32:35;;;;;;;42.42;23.88;;;;;;;;;;4952349;29;20118;-62
2022/03/24 06:35:03;;;;;;;34.83;17.83;;;;;;;;;;4952667;29;20039;-60
2022/03/24 06:37:30;;;;;;;38.33;17.50;;;;;;;;;;4952525;29;20519;-61
2022/03/24 06:39:56;;;;;;;34.67;18.17;;;;;;;;;;4952291;29;20035;-60
2022/03/24 06:42:23;;;;;;;38.65;18.30;;;;;;;;;;4951934;29;20506;-61
2022/03/24 06:44:49;;;;;;;33.72;18.50;;;;;;;;;;4942329;29;20027;-60
2022/03/24 06:47:15;;;;;;;37.45;18.13;;;;;;;;;;4942022;29;20035;-61
2022/03/24 06:49:41;;;;;;;42.65;18.02;;;;;;;;;;4940451;29;20031;-61
2022/03/24 06:52:08;;;;;;;34.65;17.77;;;;;;;;;;4942645;29;20498;-62
2022/03/24 06:54:34;;;;;;;35.25;17.52;;;;;;;;;;4942089;29;20063;-61
2022/03/24 06:57:01;;;;;;;41.40;18.25;;;;;;;;;;4941622;29;20106;-60
2022/03/24 06:59:27;;;;;;;35.22;17.88;;;;;;;;;;4942827;29;20035;-61
2022/03/24 07:01:53;;;;;;;31.80;18.33;;;;;;;;;;4925311;29;20444;-61
2022/03/24 07:04:19;;;;;;;31.38;17.80;;;;;;;;;;4941878;28;20027;-60
2022/03/24 07:06:45;;;;;;;39.28;18.83;;;;;;;;;;4945097;29;20102;-61
2022/03/24 07:09:11;;;;;;;32.28;18.10;;;;;;;;;;4942158;29;20657;-60
2022/03/24 07:11:37;;;;;;;42.00;18.55;;;;;;;;;;4948297;29;20039;-60
2022/03/24 07:14:03;;;;;;;41.15;18.85;;;;;;;;;;4943559;29;20024;-61
2022/03/24 07:16:29;;;;;;;36.45;18.08;;;;;;;;;;4952787;29;20395;-59
2022/03/24 07:18:55;;;;;;;40.88;18.25;;;;;;;;;;4945737;29;20035;-62
2022/03/24 07:21:21;;;;;;;39.35;19.77;;;;;;;;;;4944971;29;20032;-60
2022/03/24 07:23:47;;;;;;;37.05;19.40;;;;;;;;;;4944251;29;20030;-62
2022/03/24 07:26:14;;;;;;;37.35;18.90;;;;;;;;;;4946105;29;20379;-61
2022/03/24 07:28:41;;;;;;;38.67;18.55;;;;;;;;;;4946759;29;20047;-58
2022/03/24 07:31:15;;;;;;;39.13;18.90;;;;;;;;;;4954117;29;20050;-61
2022/03/24 07:33:42;;;;;;;39.70;19.77;;;;;;;;;;4952302;29;20025;-61
2022/03/24 07:36:09;;;;;;;43.33;19.50;;;;;;;;;;4954163;29;20031;-61
2022/03/24 07:38:35;;;;;;;42.70;19.48;;;;;;;;;;4953811;29;20042;-61
2022/03/24 07:41:01;;;;;;;36.97;18.73;;;;;;;;;;4953659;29;20027;-62
2022/03/24 07:43:28;;;;;;;38.15;20.27;;;;;;;;;;4953870;29;20475;-60
2022/03/24 07:45:54;;;;;;;43.28;20.02;;;;;;;;;;4954381;29;20024;-61
2022/03/24 07:48:25;;;;;;;42.30;19.60;;;;;;;;;;4953761;29;20027;-61
2022/03/24 07:50:52;;;;;;;36.72;19.38;;;;;;;;;;4953914;29;20106;-61
2022/03/24 07:53:24;;;;;;;41.58;21.70;;;;;;;;;;4954280;28;20035;-61
2022/03/24 07:55:50;;;;;;;69.30;28.10;;;;;;;;;;4953551;29;20034;-62
2022/03/24 07:58:17;;;;;;;97.32;36.42;;;;;;;;;;4953633;29;20035;-58
2022/03/24 08:00:44;;;;;;;69.68;30.83;;;;;;;;;;4953540;29;20422;-61
2022/03/24 08:03:14;;;;;;;53.45;24.42;;;;;;;;;;4953793;29;20021;-61
2022/03/24 08:05:40;;;;;;;46.47;21.55;;;;;;;;;;4954154;29;20099;-62
2022/03/24 08:08:07;;;;;;;42.22;21.10;;;;;;;;;;4951170;29;20023;-60
2022/03/24 08:10:33;;;;;;;40.33;19.90;;;;;;;;;;4953622;29;20023;-59
2022/03/24 08:12:59;;;;;;;38.60;20.23;;;;;;;;;;4953474;29;20063;-58
2022/03/24 08:15:25;;;;;;;38.20;18.05;;;;;;;;;;4951024;28;20090;-59
2022/03/24 08:17:51;;;;;;;40.35;19.20;;;;;;;;;;4952686;29;20027;-59
2022/03/24 08:20:18;;;;;;;39.55;19.42;;;;;;;;;;4953586;29;20030;-59
2022/03/24 08:22:44;;;;;;;38.33;19.25;;;;;;;;;;4952634;29;20038;-60
2022/03/24 08:25:10;;;;;;;38.20;18.50;;;;;;;;;;4953590;29;20035;-60
2022/03/24 08:27:36;;;;;;;36.33;18.70;;;;;;;;;;4954591;29;20028;-60
2022/03/24 08:30:06;;;;;;;36.67;19.55;;;;;;;;;;4952855;28;20098;-59
2022/03/24 08:32:33;;;;;;;36.40;19.13;;;;;;;;;;4954356;29;20081;-60
2022/03/24 08:35:00;;;;;;;37.45;19.05;;;;;;;;;;4954255;29;20035;-59
2022/03/24 08:37:26;;;;;;;39.92;22.33;;;;;;;;;;4936480;29;20055;-60
2022/03/24 08:39:52;;;;;;;37.90;20.20;;;;;;;;;;4954150;29;20379;-59
2022/03/24 08:42:18;;;;;;;39.10;20.08;;;;;;;;;;4953560;29;20451;-60
2022/03/24 08:44:44;;;;;;;44.90;20.33;;;;;;;;;;4952878;29;20404;-60
2022/03/24 08:47:10;;;;;;;41.13;19.42;;;;;;;;;;4953993;29;20166;-59
2022/03/24 08:49:37;;;;;;;40.72;21.20;;;;;;;;;;4954364;29;20027;-59
2022/03/24 08:52:03;;;;;;;33.80;18.80;;;;;;;;;;4954135;29;20043;-60
2022/03/24 08:54:29;;;;;;;38.15;19.23;;;;;;;;;;4954457;29;20058;-59
2022/03/24 08:56:55;;;;;;;38.67;19.40;;;;;;;;;;4954115;29;20115;-59
2022/03/24 08:59:21;;;;;;;41.00;19.35;;;;;;;;;;4953461;29;20039;-59
2022/03/24 09:01:47;;;;;;;44.90;19.27;;;;;;;;;;4953570;29;20615;-61
2022/03/24 09:04:14;;;;;;;36.28;18.75;;;;;;;;;;4953854;29;20042;-59
2022/03/24 09:06:40;;;;;;;32.72;18.65;;;;;;;;;;4952684;29;20111;-59
2022/03/24 09:09:06;;;;;;;34.70;19.05;;;;;;;;;;4952911;29;20651;-59
2022/03/24 09:11:32;;;;;;;41.65;18.83;;;;;;;;;;4952115;29;20094;-59
2022/03/24 09:13:59;;;;;;;35.92;18.25;;;;;;;;;;4953046;29;20031;-60
2022/03/24 09:16:25;;;;;;;34.65;18.48;;;;;;;;;;4952499;29;20035;-59
2022/03/24 09:18:51;;;;;;;32.95;18.83;;;;;;;;;;4952491;29;20094;-59
2022/03/24 09:21:17;;;;;;;34.35;18.65;;;;;;;;;;4952854;29;20058;-60
2022/03/24 09:23:44;;;;;;;31.90;18.00;;;;;;;;;;4951405;29;20027;-59
2022/03/24 09:26:10;;;;;;;33.83;18.17;;;;;;;;;;4951134;29;20503;-59
2022/03/24 09:28:36;;;;;;;35.30;18.05;;;;;;;;;;4950670;28;20570;-59
2022/03/24 09:31:02;;;;;;;33.03;20.27;;;;;;;;;;4953400;29;20040;-59
2022/03/24 09:33:28;;;;;;;42.00;19.83;;;;;;;;;;4953505;29;20407;-59
2022/03/24 09:35:55;;;;;;;33.85;18.48;;;;;;;;;;4951915;29;20015;-59
2022/03/24 09:38:21;;;;;;;32.25;17.42;;;;;;;;;;4950940;29;20039;-59
2022/03/24 09:40:47;;;;;;;26.25;15.60;;;;;;;;;;4952285;29;20070;-60
2022/03/24 09:43:13;;;;;;;37.28;16.92;;;;;;;;;;4952601;29;20027;-59
2022/03/24 09:45:42;;;;;;;38.72;19.02;;;;;;;;;;4952568;29;20414;-59
2022/03/24 09:48:10;;;;;;;30.95;16.23;;;;;;;;;;4952151;29;20081;-60
2022/03/24 09:50:36;;;;;;;33.72;16.70;;;;;;;;;;4952469;29;20054;-60
2022/03/24 09:53:03;;;;;;;28.77;15.85;;;;;;;;;;4951808;29;20415;-59
2022/03/24 09:55:32;;;;;;;34.17;15.80;;;;;;;;;;4952094;29;20031;-60
2022/03/24 09:57:59;;;;;;;31.55;15.82;;;;;;;;;;4952347;29;20063;-60
2022/03/24 10:00:25;;;;;;;28.25;15.82;;;;;;;;;;4952183;29;20023;-59
2022/03/24 10:03:09;;;;;;;30.02;14.77;;;;;;;;;;4952333;29;20383;-59
2022/03/24 10:05:36;;;;;;;25.70;14.18;;;;;;;;;;4952242;28;20503;-59
2022/03/24 10:08:06;;;;;;;29.73;14.52;;;;;;;;;;4948509;28;20035;-59
2022/03/24 10:10:34;;;;;;;27.23;13.43;;;;;;;;;;4951721;29;20090;-60
2022/03/24 10:13:01;;;;;;;30.50;13.45;;;;;;;;;;4952491;29;20039;-60
2022/03/24 10:15:28;;;;;;;26.00;12.75;;;;;;;;;;4951833;29;20030;-60
2022/03/24 10:17:56;;;;;;;31.92;13.65;;;;;;;;;;4951894;29;20027;-60
2022/03/24 10:20:23;;;;;;;26.90;12.68;;;;;;;;;;4952167;29;20034;-59
2022/03/24 10:22:53;;;;;;;23.58;11.75;;;;;;;;;;4951841;29;20089;-59
2022/03/24 10:25:21;;;;;;;25.83;12.88;;;;;;;;;;4949460;29;20038;-61
2022/03/24 10:27:50;;;;;;;31.60;16.13;;;;;;;;;;4951707;28;20058;-59
2022/03/24 10:30:16;;;;;;;20.63;12.35;;;;;;;;;;4952789;29;20091;-60
2022/03/24 10:32:54;;;;;;;21.33;12.05;;;;;;;;;;4953101;29;20086;-59
2022/03/24 10:35:20;;;;;;;23.77;11.80;;;;;;;;;;4953510;29;20050;-60
2022/03/24 10:37:51;;;;;;;21.17;11.30;;;;;;;;;;4952910;29;20023;-58
2022/03/24 10:40:17;;;;;;;23.42;9.10;;;;;;;;;;4954404;28;20472;-59
2022/03/24 10:42:43;;;;;;;18.58;9.45;;;;;;;;;;4955945;29;20031;-60
2022/03/24 10:45:20;;;;;;;24.80;11.38;;;;;;;;;;4956430;29;20031;-59
2022/03/24 10:47:48;;;;;;;19.95;8.32;;;;;;;;;;4956438;29;20391;-59
2022/03/24 10:50:22;;;;;;;19.50;8.73;;;;;;;;;;4956597;29;20042;-60
2022/03/24 10:52:51;;;;;;;20.17;7.75;;;;;;;;;;4955562;29;20139;-59
2022/03/24 10:55:22;;;;;;;17.48;8.18;;;;;;;;;;4956249;29;20023;-60
2022/03/24 10:57:48;;;;;;;17.70;6.82;;;;;;;;;;4954879;29;20023;-61
2022/03/24 11:00:15;;;;;;;17.15;6.80;;;;;;;;;;4956312;29;20042;-59
2022/03/24 11:02:41;;;;;;;13.68;6.90;;;;;;;;;;4956247;29;20031;-58
2022/03/24 11:05:12;;;;;;;21.38;7.95;;;;;;;;;;4955743;29;20027;-59
2022/03/24 11:07:38;;;;;;;17.05;7.10;;;;;;;;;;4955313;29;20047;-59
2022/03/24 11:10:11;;;;;;;18.48;7.15;;;;;;;;;;4955147;29;20019;-61
2022/03/24 11:12:39;;;;;;;15.75;6.50;;;;;;;;;;4955546;29;20493;-59
2022/03/24 11:15:07;;;;;;;14.40;7.07;;;;;;;;;;4955808;29;20108;-59
2022/03/24 11:17:36;;;;;;;13.98;6.88;;;;;;;;;;4955061;29;20064;-56
2022/03/24 11:20:05;;;;;;;12.88;6.63;;;;;;;;;;4954733;29;20039;-59
2022/03/24 11:22:49;;;;;;;14.45;7.35;;;;;;;;;;4955190;29;20031;-58
2022/03/24 11:25:17;;;;;;;14.73;7.13;;;;;;;;;;4955194;29;20117;-59
2022/03/24 11:27:43;;;;;;;14.65;6.45;;;;;;;;;;4945206;28;20693;-59
2022/03/24 11:30:11;;;;;;;16.73;6.78;;;;;;;;;;4954211;29;20388;-59
2022/03/24 11:32:38;;;;;;;14.90;5.90;;;;;;;;;;4954820;29;20032;-60
2022/03/24 11:35:07;;;;;;;14.68;7.00;;;;;;;;;;4955431;29;20420;-58
2022/03/24 11:37:34;;;;;;;17.95;7.30;;;;;;;;;;4955279;29;20028;-60
2022/03/24 11:40:06;;;;;;;14.75;6.47;;;;;;;;;;4955305;29;20019;-59
2022/03/24 11:42:33;;;;;;;17.52;6.75;;;;;;;;;;4954955;29;20031;-61
2022/03/24 11:45:04;;;;;;;16.20;6.70;;;;;;;;;;4955430;29;20042;-59
2022/03/24 11:47:47;;;;;;;14.70;7.10;;;;;;;;;;4955166;29;20042;-59
2022/03/24 11:50:17;;;;;;;20.52;6.63;;;;;;;;;;4955024;28;20039;-59
2022/03/24 11:52:43;;;;;;;22.67;6.53;;;;;;;;;;4954404;29;20126;-59
2022/03/24 11:55:16;;;;;;;18.08;6.68;;;;;;;;;;4955256;29;20367;-59
2022/03/24 11:57:42;;;;;;;20.40;6.20;;;;;;;;;;4955183;29;20065;-59
2022/03/24 12:00:14;;;;;;;20.45;6.40;;;;;;;;;;4954719;29;20118;-59
2022/03/24 12:02:49;;;;;;;16.77;6.00;;;;;;;;;;4954838;29;20031;-60
2022/03/24 12:05:16;;;;;;;16.92;6.70;;;;;;;;;;4952596;29;20038;-59
2022/03/24 12:07:42;;;;;;;14.10;5.57;;;;;;;;;;4954558;29;20023;-59
2022/03/24 12:10:10;;;;;;;16.25;6.80;;;;;;;;;;4954724;29;20038;-57
2022/03/24 12:12:37;;;;;;;14.65;6.55;;;;;;;;;;4954754;29;20538;-60
2022/03/24 12:15:16;;;;;;;14.52;6.43;;;;;;;;;;4954585;29;20031;-58
2022/03/24 12:18:01;;;;;;;18.13;6.25;;;;;;;;;;4954177;29;20046;-58
2022/03/24 12:20:27;;;;;;;23.20;6.53;;;;;;;;;;4953154;29;20027;-59
2022/03/24 12:22:58;;;;;;;15.55;6.40;;;;;;;;;;4954250;29;20094;-59
2022/03/24 12:25:26;;;;;;;15.85;6.75;;;;;;;;;;4954012;29;20399;-58
2022/03/24 12:28:01;;;;;;;14.02;7.03;;;;;;;;;;4953470;28;20104;-59
2022/03/24 12:30:40;;;;;;;13.25;6.85;;;;;;;;;;4953704;29;20042;-59
2022/03/24 12:33:07;;;;;;;14.30;7.13;;;;;;;;;;4953788;29;20023;-59
2022/03/24 12:35:49;;;;;;;16.85;7.25;;;;;;;;;;4951008;29;20023;-59
2022/03/24 12:38:21;;;;;;;15.47;6.90;;;;;;;;;;4951827;29;20027;-60
2022/03/24 12:41:06;;;;;;;22.90;6.70;;;;;;;;;;4953613;29;20261;-59
2022/03/24 12:43:49;;;;;;;13.90;6.28;;;;;;;;;;4953480;29;20094;-57
2022/03/24 12:46:28;;;;;;;21.10;6.57;;;;;;;;;;4951442;29;20072;-58
2022/03/24 12:48:55;;;;;;;10.52;5.72;;;;;;;;;;4951385;29;20027;-62
2022/03/24 12:51:26;;;;;;;13.95;6.40;;;;;;;;;;4953584;29;20124;-59
2022/03/24 12:54:00;;;;;;;15.38;6.55;;;;;;;;;;4951962;29;20105;-59
2022/03/24 12:56:27;;;;;;;16.35;6.72;;;;;;;;;;4954551;29;20027;-60
2022/03/24 12:58:54;;;;;;;16.02;6.80;;;;;;;;;;4953712;29;20027;-58
2022/03/24 13:01:20;;;;;;;13.40;6.60;;;;;;;;;;4953536;29;20039;-58
2022/03/24 13:03:54;;;;;;;18.45;6.57;;;;;;;;;;4953665;28;20027;-59
2022/03/24 13:06:20;;;;;;;13.02;6.20;;;;;;;;;;4952658;29;20058;-60
2022/03/24 13:09:05;;;;;;;13.88;6.90;;;;;;;;;;4952872;28;20105;-58
2022/03/24 13:11:47;;;;;;;12.85;6.70;;;;;;;;;;4958366;28;20047;-59
2022/03/24 13:14:13;;;;;;;17.67;7.13;;;;;;;;;;4933649;29;20031;-61
2022/03/24 13:16:39;;;;;;;15.82;6.68;;;;;;;;;;4933612;29;20036;-58
2022/03/24 13:19:05;;;;;;;25.88;6.82;;;;;;;;;;4933559;29;20031;-61
2022/03/24 13:21:31;;;;;;;14.60;5.93;;;;;;;;;;4934108;29;20028;-59
2022/03/24 13:23:58;;;;;;;14.45;6.30;;;;;;;;;;4934267;29;20110;-58
2022/03/24 13:26:24;;;;;;;13.88;6.75;;;;;;;;;;4934259;29;20080;-58
2022/03/24 13:28:55;;;;;;;14.27;6.55;;;;;;;;;;4933790;29;20119;-57
2022/03/24 13:31:29;;;;;;;16.48;6.15;;;;;;;;;;4934054;29;20042;-57
2022/03/24 13:33:55;;;;;;;12.73;6.75;;;;;;;;;;4934307;29;20035;-59
2022/03/24 13:36:21;;;;;;;13.65;6.47;;;;;;;;;;4934076;29;20583;-57
2022/03/24 13:38:47;;;;;;;17.88;6.85;;;;;;;;;;4934212;29;20036;-61
2022/03/24 13:41:13;;;;;;;13.65;6.45;;;;;;;;;;4934230;29;20096;-57
2022/03/24 13:43:40;;;;;;;14.50;7.70;;;;;;;;;;4933715;29;20031;-58
2022/03/24 13:46:06;;;;;;;17.65;7.38;;;;;;;;;;4934152;29;20483;-58
2022/03/24 13:48:32;;;;;;;16.83;7.07;;;;;;;;;;4934010;29;20031;-59
2022/03/24 13:51:05;;;;;;;18.27;7.45;;;;;;;;;;4933959;29;20035;-58
2022/03/24 13:53:31;;;;;;;15.13;6.38;;;;;;;;;;4933920;29;20038;-60
2022/03/24 13:56:08;;;;;;;15.00;7.00;;;;;;;;;;4933800;29;20019;-58
2022/03/24 13:58:35;;;;;;;17.13;7.13;;;;;;;;;;4933951;29;20389;-58
2022/03/24 14:01:02;;;;;;;17.30;6.85;;;;;;;;;;4933713;29;20032;-59
2022/03/24 14:03:28;;;;;;;15.68;7.10;;;;;;;;;;4933863;29;20028;-58
2022/03/24 14:06:01;;;;;;;16.30;6.82;;;;;;;;;;4933504;29;20028;-58
2022/03/24 14:08:27;;;;;;;14.75;7.03;;;;;;;;;;4949469;29;20062;-60
2022/03/24 14:11:15;;;;;;;15.98;7.13;;;;;;;;;;4952657;29;20019;-58
2022/03/24 14:13:45;;;;;;;13.40;6.40;;;;;;;;;;4952283;28;20031;-58
2022/03/24 14:16:25;;;;;;;13.07;6.90;;;;;;;;;;4952201;29;20031;-60
2022/03/24 14:19:03;;;;;;;16.23;6.85;;;;;;;;;;4952433;29;20027;-59
2022/03/24 14:21:48;;;;;;;21.10;6.97;;;;;;;;;;4952089;29;20028;-59
2022/03/24 14:24:33;;;;;;;14.90;6.45;;;;;;;;;;4952144;29;20428;-61
2022/03/24 14:27:04;;;;;;;14.18;6.20;;;;;;;;;;4952628;29;20039;-56
2022/03/24 14:29:30;;;;;;;12.82;6.35;;;;;;;;;;4952113;29;20048;-59
2022/03/24 14:32:09;;;;;;;12.25;6.10;;;;;;;;;;4952390;29;20039;-59
2022/03/24 14:34:38;;;;;;;15.05;6.50;;;;;;;;;;4952220;29;20034;-57
2022/03/24 14:37:10;;;;;;;14.73;6.22;;;;;;;;;;4952411;29;20127;-59
2022/03/24 14:39:45;;;;;;;14.80;6.32;;;;;;;;;;4952424;29;20031;-59
2022/03/24 14:42:11;;;;;;;11.15;5.93;;;;;;;;;;4951999;29;20670;-60
2022/03/24 14:44:37;;;;;;;14.55;6.60;;;;;;;;;;4952348;29;20031;-60
2022/03/24 14:47:04;;;;;;;13.93;6.32;;;;;;;;;;4952393;29;20035;-57
2022/03/24 14:49:30;;;;;;;10.30;5.72;;;;;;;;;;4952421;29;20028;-57
2022/03/24 14:51:56;;;;;;;11.70;6.28;;;;;;;;;;4952515;29;20039;-57
2022/03/24 14:54:22;;;;;;;15.60;5.90;;;;;;;;;;4952439;29;20708;-57
2022/03/24 14:56:49;;;;;;;15.27;6.80;;;;;;;;;;4952530;29;20023;-58
2022/03/24 14:59:15;;;;;;;16.27;6.32;;;;;;;;;;4950834;29;20086;-58
2022/03/24 15:01:42;;;;;;;16.52;6.30;;;;;;;;;;4952057;29;20034;-57
2022/03/24 15:04:08;;;;;;;15.90;6.68;;;;;;;;;;4952540;29;20416;-58
2022/03/24 15:06:35;;;;;;;13.25;6.35;;;;;;;;;;4952505;29;20035;-60
2022/03/24 15:09:01;;;;;;;11.20;5.88;;;;;;;;;;4952349;29;20099;-58
2022/03/24 15:11:27;;;;;;;11.15;5.88;;;;;;;;;;4951893;29;20039;-58
2022/03/24 15:16:38;;;;;;;16.13;5.78;;;;;;;;;;4952302;29;20111;-59
2022/03/24 15:19:05;;;;;;;9.95;5.68;;;;;;;;;;4952225;29;20027;-58
2022/03/24 15:21:32;;;;;;;11.45;5.72;;;;;;;;;;4951734;29;20049;-59
2022/03/24 15:23:58;;;;;;;9.80;5.30;;;;;;;;;;4952084;29;20030;-61
2022/03/24 15:26:25;;;;;;;13.68;5.40;;;;;;;;;;4954004;28;20035;-60
2022/03/24 15:28:51;;;;;;;10.52;5.25;;;;;;;;;;4955359;28;20474;-59
2022/03/24 15:31:18;;;;;;;10.82;5.20;;;;;;;;;;4955339;29;20039;-59
2022/03/24 15:33:44;;;;;;;14.52;5.15;;;;;;;;;;4955389;29;20931;-60
2022/03/24 15:36:10;;;;;;;12.25;6.00;;;;;;;;;;4955685;29;20122;-58
2022/03/24 15:38:36;;;;;;;11.32;5.47;;;;;;;;;;4955286;29;20089;-62
2022/03/24 15:41:03;;;;;;;11.13;5.18;;;;;;;;;;4955346;29;20027;-59
2022/03/24 15:43:29;;;;;;;12.52;5.82;;;;;;;;;;4955723;29;20038;-59
2022/03/24 15:45:56;;;;;;;9.50;5.32;;;;;;;;;;4955189;29;20039;-59
2022/03/24 15:48:22;;;;;;;13.52;5.80;;;;;;;;;;4953504;29;20030;-58
2022/03/24 15:50:49;;;;;;;15.23;8.45;;;;;;;;;;4955135;29;20038;-59
2022/03/24 15:53:15;;;;;;;23.67;11.52;;;;;;;;;;4954841;29;20075;-60
2022/03/24 15:55:41;;;;;;;12.85;6.57;;;;;;;;;;4955177;29;20023;-59
2022/03/24 15:58:10;;;;;;;11.65;5.25;;;;;;;;;;4954963;29;20046;-59
2022/03/24 16:00:36;;;;;;;15.10;6.03;;;;;;;;;;4954843;29;20031;-60
2022/03/24 16:03:02;;;;;;;16.10;5.68;;;;;;;;;;4954504;29;20035;-59
2022/03/24 16:05:33;;;;;;;13.77;5.60;;;;;;;;;;4954923;29;20023;-60
2022/03/24 16:07:59;;;;;;;13.43;5.78;;;;;;;;;;4955089;29;20114;-59
2022/03/24 16:10:25;;;;;;;12.20;5.95;;;;;;;;;;4954943;29;20031;-57
2022/03/24 16:12:51;;;;;;;15.75;6.00;;;;;;;;;;4954950;29;20074;-60
2022/03/24 16:15:17;;;;;;;10.07;5.10;;;;;;;;;;4954828;29;20019;-61
2022/03/24 16:17:43;;;;;;;8.63;5.30;;;;;;;;;;4954718;29;20107;-59
2022/03/24 16:20:11;;;;;;;16.58;5.80;;;;;;;;;;4954768;29;20036;-60
2022/03/24 16:22:37;;;;;;;15.13;6.00;;;;;;;;;;4954932;29;20042;-58
2022/03/24 16:25:04;;;;;;;10.52;5.00;;;;;;;;;;4954774;29;20046;-57
2022/03/24 16:27:30;;;;;;;13.15;5.50;;;;;;;;;;4936733;29;20626;-61
2022/03/24 16:29:57;;;;;;;9.23;5.70;;;;;;;;;;4954331;28;20051;-58
2022/03/24 16:32:23;;;;;;;16.65;6.72;;;;;;;;;;4954542;29;20046;-58
2022/03/24 16:34:49;;;;;;;18.23;6.07;;;;;;;;;;4954148;29;20110;-61
2022/03/24 16:37:15;;;;;;;14.90;6.15;;;;;;;;;;4953768;28;20027;-58
2022/03/24 16:39:41;;;;;;;14.85;6.20;;;;;;;;;;4954218;29;20027;-58
2022/03/24 16:42:07;;;;;;;15.88;6.93;;;;;;;;;;4954259;29;20035;-61
2022/03/24 16:44:33;;;;;;;15.07;6.63;;;;;;;;;;4954414;29;20031;-61
2022/03/24 16:47:00;;;;;;;15.60;6.50;;;;;;;;;;4954353;29;20035;-62
2022/03/24 16:49:26;;;;;;;16.83;6.90;;;;;;;;;;4954136;29;20043;-62
2022/03/24 16:51:52;;;;;;;20.65;6.85;;;;;;;;;;4954435;29;20530;-62
2022/03/24 16:54:18;;;;;;;14.32;6.30;;;;;;;;;;4954074;29;20078;-62
2022/03/24 16:56:44;;;;;;;17.27;6.60;;;;;;;;;;4953856;29;20058;-63
2022/03/24 16:59:11;;;;;;;18.38;6.40;;;;;;;;;;4953332;29;20096;-62
2022/03/24 17:01:37;;;;;;;14.00;6.50;;;;;;;;;;4953795;29;20072;-62
2022/03/24 17:04:04;;;;;;;12.60;6.40;;;;;;;;;;4952986;29;20031;-61
2022/03/24 17:06:30;;;;;;;13.98;6.82;;;;;;;;;;4954081;29;20027;-62
2022/03/24 17:08:56;;;;;;;31.73;7.60;;;;;;;;;;4949805;29;20031;-60
2022/03/24 17:11:22;;;;;;;23.25;7.05;;;;;;;;;;4934458;29;20087;-62
2022/03/24 17:13:49;;;;;;;12.60;6.28;;;;;;;;;;4934797;29;20040;-58
2022/03/24 17:16:15;;;;;;;19.83;7.05;;;;;;;;;;4935046;29;20043;-61
2022/03/24 17:18:41;;;;;;;16.70;7.80;;;;;;;;;;4934123;29;20469;-60
2022/03/24 17:21:07;;;;;;;21.73;7.03;;;;;;;;;;4934039;29;20460;-62
2022/03/24 17:23:33;;;;;;;19.38;7.60;;;;;;;;;;4934375;29;20080;-60
2022/03/24 17:26:00;;;;;;;18.13;6.68;;;;;;;;;;4934206;29;20036;-60
2022/03/24 17:28:26;;;;;;;22.60;8.23;;;;;;;;;;4933859;29;20507;-61
2022/03/24 17:30:52;;;;;;;21.73;10.45;;;;;;;;;;4934055;29;20433;-59
2022/03/24 17:33:18;;;;;;;28.20;13.35;;;;;;;;;;4934080;29;20452;-61
2022/03/24 17:35:44;;;;;;;26.70;12.55;;;;;;;;;;4933982;29;20421;-60
2022/03/24 17:38:11;;;;;;;25.17;12.80;;;;;;;;;;4934227;29;20034;-59
2022/03/24 17:40:37;;;;;;;25.20;11.07;;;;;;;;;;4934128;29;20563;-63
2022/03/24 17:43:03;;;;;;;22.27;10.60;;;;;;;;;;4934293;29;20748;-59
2022/03/24 17:45:29;;;;;;;17.92;9.35;;;;;;;;;;4934247;29;20107;-60
2022/03/24 17:47:57;;;;;;;18.58;9.23;;;;;;;;;;4933631;29;20020;-63
2022/03/24 17:50:24;;;;;;;18.02;8.88;;;;;;;;;;4933241;29;20535;-63
2022/03/24 17:52:50;;;;;;;21.67;9.23;;;;;;;;;;4934232;29;20046;-60
2022/03/24 17:55:16;;;;;;;20.38;9.30;;;;;;;;;;4933985;29;20016;-60
2022/03/24 17:57:42;;;;;;;19.65;10.40;;;;;;;;;;4934087;29;20028;-60
2022/03/24 18:00:09;;;;;;;20.13;9.95;;;;;;;;;;4934021;29;20036;-60
2022/03/24 18:02:36;;;;;;;16.98;9.95;;;;;;;;;;4933503;29;20030;-62
2022/03/24 18:05:02;;;;;;;23.05;9.43;;;;;;;;;;4933837;29;20031;-59
2022/03/24 18:07:28;;;;;;;22.23;9.95;;;;;;;;;;4933709;29;20036;-60
2022/03/24 18:09:57;;;;;;;19.67;9.32;;;;;;;;;;4933125;29;20043;-59
2022/03/24 18:12:24;;;;;;;20.88;9.52;;;;;;;;;;4933355;29;20377;-59
2022/03/24 18:14:50;;;;;;;19.42;9.63;;;;;;;;;;4933602;29;20034;-59
2022/03/24 18:17:16;;;;;;;21.42;9.27;;;;;;;;;;4933611;29;20114;-61
2022/03/24 18:19:42;;;;;;;24.17;9.80;;;;;;;;;;4933414;29;20023;-60
2022/03/24 18:22:08;;;;;;;19.08;9.68;;;;;;;;;;4933709;29;20720;-59
2022/03/24 18:24:34;;;;;;;16.52;9.35;;;;;;;;;;4933647;29;20476;-60
2022/03/24 18:27:00;;;;;;;17.23;9.80;;;;;;;;;;4933265;29;20479;-60
2022/03/24 18:29:27;;;;;;;19.00;10.40;;;;;;;;;;4933093;29;20408;-60
2022/03/24 18:31:54;;;;;;;21.25;10.55;;;;;;;;;;4933214;29;20451;-61
2022/03/24 18:34:21;;;;;;;22.27;10.63;;;;;;;;;;4933086;29;20059;-60
2022/03/24 18:36:47;;;;;;;21.90;10.77;;;;;;;;;;4933534;29;20031;-59
2022/03/24 18:39:13;;;;;;;22.58;11.32;;;;;;;;;;4933315;29;20040;-59
2022/03/24 18:41:39;;;;;;;24.73;10.68;;;;;;;;;;4936043;29;20830;-60
2022/03/24 18:44:08;;;;;;;23.05;10.95;;;;;;;;;;4952616;29;20031;-63
2022/03/24 18:46:34;;;;;;;23.33;10.73;;;;;;;;;;4952097;29;20094;-62
2022/03/24 18:49:01;;;;;;;23.83;10.30;;;;;;;;;;4952487;29;20023;-59
2022/03/24 18:51:27;;;;;;;25.52;11.60;;;;;;;;;;4952355;29;20046;-61
2022/03/24 18:53:54;;;;;;;22.83;11.63;;;;;;;;;;4952503;29;20063;-59
2022/03/24 18:56:20;;;;;;;19.85;10.52;;;;;;;;;;4952302;29;20023;-59
2022/03/24 18:58:48;;;;;;;20.00;11.00;;;;;;;;;;4952184;29;20041;-61
2022/03/24 19:01:14;;;;;;;26.27;11.73;;;;;;;;;;4954012;28;20032;-61
2022/03/24 19:03:40;;;;;;;30.05;14.23;;;;;;;;;;4955846;29;20122;-60
2022/03/24 19:06:08;;;;;;;33.13;16.55;;;;;;;;;;4956085;29;20524;-60
2022/03/24 19:08:34;;;;;;;28.70;14.23;;;;;;;;;;4955837;29;20043;-60
2022/03/24 19:11:00;;;;;;;26.63;12.95;;;;;;;;;;4955145;29;20027;-60
2022/03/24 19:13:27;;;;;;;28.83;14.57;;;;;;;;;;4955422;29;20035;-60
2022/03/24 19:15:53;;;;;;;30.42;14.45;;;;;;;;;;4955543;29;20023;-60
2022/03/24 19:18:21;;;;;;;29.25;14.13;;;;;;;;;;4955091;29;20150;-60
2022/03/24 19:20:47;;;;;;;24.67;13.85;;;;;;;;;;4954878;29;20078;-60
2022/03/24 19:23:13;;;;;;;26.40;13.65;;;;;;;;;;4954525;29;20035;-62
2022/03/24 19:25:39;;;;;;;23.98;12.95;;;;;;;;;;4954892;29;20110;-62
2022/03/24 19:28:06;;;;;;;27.58;14.82;;;;;;;;;;4954844;28;20023;-62
2022/03/24 19:30:33;;;;;;;31.70;16.67;;;;;;;;;;4954274;29;20483;-62
2022/03/24 19:32:59;;;;;;;30.45;16.00;;;;;;;;;;4954224;29;20051;-62
2022/03/24 19:35:25;;;;;;;30.50;14.32;;;;;;;;;;4955240;29;20347;-63
2022/03/24 19:37:52;;;;;;;28.13;12.82;;;;;;;;;;4955029;29;20042;-62
2022/03/24 19:40:19;;;;;;;28.63;16.08;;;;;;;;;;4954797;29;20472;-61
2022/03/24 19:42:47;;;;;;;44.28;26.98;;;;;;;;;;4954530;29;20039;-61
2022/03/24 19:45:15;;;;;;;43.70;21.95;;;;;;;;;;4955038;29;20031;-61
2022/03/24 19:47:41;;;;;;;40.60;21.48;;;;;;;;;;4954928;29;20479;-60
2022/03/24 19:50:07;;;;;;;40.17;20.48;;;;;;;;;;4955213;29;20502;-60
2022/03/24 19:52:34;;;;;;;38.22;20.35;;;;;;;;;;4955027;29;20098;-62
2022/03/24 19:55:00;;;;;;;45.17;18.83;;;;;;;;;;4954336;29;20030;-60
2022/03/24 19:57:26;;;;;;;43.08;18.95;;;;;;;;;;4953461;29;20039;-61
2022/03/24 19:59:52;;;;;;;35.50;16.33;;;;;;;;;;4953873;28;20531;-60
2022/03/24 20:02:19;;;;;;;34.72;16.65;;;;;;;;;;4954732;29;20035;-62
2022/03/24 20:04:47;;;;;;;31.00;15.40;;;;;;;;;;4954844;29;20479;-59
2022/03/24 20:07:13;;;;;;;33.20;15.32;;;;;;;;;;4954913;29;20058;-60
2022/03/24 20:09:39;;;;;;;29.40;14.77;;;;;;;;;;4954692;29;20050;-60
2022/03/24 20:12:05;;;;;;;34.92;13.63;;;;;;;;;;4935653;29;20047;-59
2022/03/24 20:14:37;;;;;;;28.45;13.27;;;;;;;;;;4954363;29;20031;-59
2022/03/24 20:17:04;;;;;;;27.55;13.57;;;;;;;;;;4954827;29;20042;-59
2022/03/24 20:19:30;;;;;;;34.35;15.18;;;;;;;;;;4954621;29;20040;-60
2022/03/24 20:21:57;;;;;;;31.13;14.85;;;;;;;;;;4953470;29;20027;-63
2022/03/24 20:24:23;;;;;;;26.17;14.57;;;;;;;;;;4953695;29;20027;-62
2022/03/24 20:27:08;;;;;;;28.15;13.93;;;;;;;;;;4953479;29;20102;-61
2022/03/24 20:29:53;;;;;;;28.33;13.52;;;;;;;;;;4951951;28;20475;-61
2022/03/24 20:32:19;;;;;;;33.83;14.02;;;;;;;;;;4952838;29;20079;-62
2022/03/24 20:34:45;;;;;;;30.77;14.05;;;;;;;;;;4953307;29;20475;-62
2022/03/24 20:37:12;;;;;;;32.25;14.18;;;;;;;;;;4953018;29;20028;-62
2022/03/24 20:39:40;;;;;;;32.70;15.02;;;;;;;;;;4953338;29;20031;-61
2022/03/24 20:42:07;;;;;;;32.38;14.65;;;;;;;;;;4953307;29;20034;-61
2022/03/24 20:44:33;;;;;;;27.98;14.25;;;;;;;;;;4953686;29;20028;-61
2022/03/24 20:47:02;;;;;;;30.77;14.18;;;;;;;;;;4953973;29;20055;-61
2022/03/24 20:49:28;;;;;;;30.48;14.52;;;;;;;;;;4953915;29;20035;-61
2022/03/24 20:51:54;;;;;;;28.65;13.20;;;;;;;;;;4954056;29;20032;-61
2022/03/24 20:54:20;;;;;;;28.50;13.90;;;;;;;;;;4953966;29;20031;-62
2022/03/24 20:56:47;;;;;;;31.17;14.30;;;;;;;;;;4953723;29;20415;-61
2022/03/24 20:59:13;;;;;;;31.98;13.93;;;;;;;;;;4953712;29;20047;-60